Winston-Salem, NC

10:09 PM EDT on August 27, 2016 (GMT -0400)
Creedmor (WD4LSS) | | Change Station

Elev 770 ft 35.99 °N, 80.31 °W | Updated 9 minutes ago

Clear
Clear
71.8 °F
Feels Like 71.8 °F
N
0.0
Wind Variable Wind from NW
Gusts 1.0 mph

Today
High -- | Low -- °F
--% Chance of Precip.
Yesterday
High -- | Low -- °F
Precip. -- in
Pressure 30.15 in
Visibility 10.0 miles
Clouds Clear
Dew Point Not available.
Humidity Not available.
Rainfall 0.27 in
Snow Depth Not available.
6:49 AM 7:55 PM
Waning Crescent, 19% visible
METAR KINT 280154Z AUTO 00000KT 10SM CLR 23/22 A3018 RMK AO2 SLP209 T02330217
Pressure 30.15 in
Visibility 10.0 miles
Clouds Clear
Dew Point Not available.
Humidity Not available.
Rainfall 0.27 in
Snow Depth Not available.
6:49 AM 7:55 PM
Waning Crescent, 19% visible
METAR KINT 280154Z AUTO 00000KT 10SM CLR 23/22 A3018 RMK AO2 SLP209 T02330217

10-Day Weather Forecast

Almanac

Astronomy

Aug. 27, 2016 Rise Set
Actual Time
Civil Twilight
Nautical Twilight
Astronomical Twilight
Moon
Length of Visible Light
Length of Day
Tomorrow will be .
, % of the Moon is Illuminated

Today's Extremes

State Highs State Lows

Community

WunderPhotos

Upload Photos

1,935,491 photos uploaded!

WunderBlog® & News

Nearby

Air Quality

  Air Quality AQ Index Pollutant
Not available.

Snow Depth

Station Depth Elevation

Earthquake Activity

City Distance Mag. Time & Date
Minimum magnitude displayed is 2.5.

Coastal Water Temperatures

Place Temperature

Stations

Nearby Weather Stations

Station Location Temp. Windchill Dew Point Humidity Wind Precip. Elev Updated Type
                   

Watches & Warnings

There are currently no watches in effect.